メインページ
METAR-TAF:

METAR-TAF

空港 :

オタワ, オンタリオ州, カナダ

オタワ・マクドナルド・カルティエ国際空港

緯度: 45-19N, 経度: 075-40W, 海抜: 116m

現時点の気象観測

当レポートは59分前の11:00(UTC)に作成
南/南西の風 3kt
気温 2°C
湿度 93%
気圧 1018 hPa
視程: 24.1km
高度25000ftの雲はほとんどない

METAR: CYOW 231100Z 20003KT 15SM FEW250 02/01 A3007 RMK CI1 SLP187

時間: 07:59 (11:59 UTC)

予報

当レポートは21分前の11:38(UTC)に作成
予報は23日の 12時(UTC)から 24日の 12時(UTC)まで有効
変向風 3kt
視程: 10km
晴天
23日の 1500時(UTC)から
南西の風 12kt、最大22ktの突風を伴う
視程: 10km
高度25000ftの雲は散在している
23日の 2000時(UTC)から
南西の風 15kt、最大25ktの突風を伴う
視程: 10km
高度3000ftの雲は散在している
高度7000ftの千切れ雲あり
23日の 23時(UTC)から 24日の 01時(UTC)まで一時的に
視程: 10km
高度3000ftの曇り
弱いにわか雨
24日の 0100時(UTC)から
北西の風 12kt、最大22ktの突風を伴う
視程: 10km
高度4000ftの曇り
24日の 04時(UTC)から 24日の 06時(UTC)まで徐々に
の風 12kt
24日の 0800時(UTC)から
北/北東の風 12kt
視程: 10km
高度6000ftの雲は散在している

TAF: CYOW 231138Z 2312/2412 VRB03KT P6SM SKC FM231500 22012G22KT P6SM SCT250 FM232000 22015G25KT P6SM SCT030 BKN070 TEMPO 2323/2401 P6SM -SHRA OVC030 FM240100 32012G22KT P6SM OVC040 BECMG 2404/2406 01012KT FM240800 03012KT P6SM SCT060 RMK NXT FCST BY 231500Z

4,000以上の空港の気象観測と天気予報(METAR報とTAF報)

利用可能な観測所は地図上に黄色い丸と赤い丸で示す。

丸の上にカーソルを重ねると観測所名を参照できる。

次にクリックすると気象観測と天気予報を参照できる。

マップの切り替え:黒色「×」印の緑ボタンをクリックして拡大、「-」印の緑ボタンをクリックして縮小、緑色の三角印をクリックして隣りの地図に切り替え


METAR-TAF: